createdAt,value
2022-10-30T00:00:48.846Z,12.30
2022-10-30T00:03:16.935Z,12.20
2022-10-30T00:05:45.819Z,12.20
2022-10-30T00:08:14.468Z,12.20
2022-10-30T00:10:42.056Z,12.20
2022-10-30T00:13:09.602Z,12.10
2022-10-30T00:15:36.800Z,12.10
2022-10-30T00:18:04.083Z,12.00
2022-10-30T00:20:31.075Z,12.00
2022-10-30T00:22:58.529Z,12.00
2022-10-30T00:25:25.586Z,12.00
2022-10-30T00:27:52.419Z,12.00
2022-10-30T00:30:19.336Z,11.90
2022-10-30T00:32:46.181Z,11.80
2022-10-30T00:35:12.973Z,11.80
2022-10-30T00:37:40.816Z,11.70
2022-10-30T00:40:15.462Z,11.70
2022-10-30T00:42:42.373Z,11.70
2022-10-30T00:45:13.072Z,11.60
2022-10-30T00:47:55.563Z,11.50
2022-10-30T00:50:30.646Z,11.50
2022-10-30T00:53:08.886Z,11.50
2022-10-30T00:55:39.975Z,11.50
2022-10-30T00:58:10.438Z,11.50
2022-10-30T01:00:41.735Z,11.40
2022-10-30T01:03:09.440Z,11.40
2022-10-30T01:05:36.437Z,11.40
2022-10-30T01:08:03.892Z,11.40
2022-10-30T01:10:30.702Z,11.50
2022-10-30T01:12:59.963Z,11.50
2022-10-30T01:15:35.233Z,11.50
2022-10-30T01:18:32.426Z,11.50
2022-10-30T01:21:38.663Z,11.50
2022-10-30T01:24:28.373Z,11.50
2022-10-30T01:27:12.893Z,11.50
2022-10-30T01:30:10.906Z,11.50
2022-10-30T01:32:53.372Z,11.50
2022-10-30T01:35:42.205Z,11.50
2022-10-30T01:38:23.789Z,11.50
2022-10-30T01:40:53.082Z,11.50
2022-10-30T01:43:20.273Z,11.50
2022-10-30T01:45:57.343Z,11.60
2022-10-30T01:48:54.303Z,11.60
2022-10-30T01:51:42.996Z,11.60
2022-10-30T01:54:36.317Z,11.60
2022-10-30T01:57:27.446Z,11.60
2022-10-30T01:59:58.609Z,11.50
2022-10-30T02:02:25.827Z,11.50
2022-10-30T02:04:55.233Z,11.50
2022-10-30T02:07:22.446Z,11.50
2022-10-30T02:09:54.931Z,11.40
2022-10-30T02:12:23.493Z,11.40
2022-10-30T02:14:54.554Z,11.40
2022-10-30T02:17:21.959Z,11.30
2022-10-30T02:19:49.987Z,11.30
2022-10-30T02:22:18.068Z,11.30
2022-10-30T02:24:45.842Z,11.30
2022-10-30T02:27:13.280Z,11.40
2022-10-30T02:29:40.886Z,11.40
2022-10-30T02:32:07.715Z,11.40
2022-10-30T02:34:35.186Z,11.40
2022-10-30T02:37:02.048Z,11.40
2022-10-30T02:39:28.805Z,11.40
2022-10-30T02:41:56.068Z,11.40
2022-10-30T02:44:22.881Z,11.40
2022-10-30T02:46:50.784Z,11.40
2022-10-30T02:49:17.581Z,11.30
2022-10-30T02:51:45.376Z,11.30
2022-10-30T02:54:13.164Z,11.20
2022-10-30T02:56:41.180Z,11.20
2022-10-30T02:59:08.155Z,11.20
2022-10-30T03:01:36.089Z,11.20
2022-10-30T03:04:03.084Z,11.20
2022-10-30T03:06:29.918Z,11.10
2022-10-30T03:08:58.715Z,11.10
2022-10-30T03:11:25.837Z,11.00
2022-10-30T03:13:54.447Z,10.90
2022-10-30T03:16:26.270Z,10.90
2022-10-30T03:18:53.378Z,10.80
2022-10-30T03:21:22.698Z,10.70
2022-10-30T03:23:52.658Z,10.70
2022-10-30T03:26:22.768Z,10.60
2022-10-30T03:28:57.257Z,10.60
2022-10-30T03:31:24.040Z,10.50
2022-10-30T03:34:09.991Z,10.50
2022-10-30T03:36:36.826Z,10.40
2022-10-30T03:39:04.636Z,10.40
2022-10-30T03:41:32.646Z,10.30
2022-10-30T03:43:59.512Z,10.30
2022-10-30T03:46:26.595Z,10.30
2022-10-30T03:48:58.548Z,10.20
2022-10-30T03:51:25.369Z,10.20
2022-10-30T03:53:52.156Z,10.10
2022-10-30T03:56:19.888Z,10.10
2022-10-30T03:58:50.855Z,10.10
2022-10-30T04:01:21.427Z,10.10
2022-10-30T04:03:54.064Z,10.10
2022-10-30T04:06:21.738Z,10.10
2022-10-30T04:08:48.628Z,10.10
2022-10-30T04:11:15.486Z,10.10
2022-10-30T04:13:43.440Z,10.10
2022-10-30T04:16:12.072Z,10.10
2022-10-30T04:18:38.912Z,10.10
2022-10-30T04:21:06.132Z,10.10
2022-10-30T04:23:35.027Z,10.10
2022-10-30T04:26:02.163Z,10.20
2022-10-30T04:28:29.026Z,10.20
2022-10-30T04:30:56.712Z,10.20
2022-10-30T04:33:25.375Z,10.10
2022-10-30T04:35:52.155Z,10.10
2022-10-30T04:38:20.702Z,10.00
2022-10-30T04:40:48.520Z,10.00
2022-10-30T04:43:17.291Z,9.90
2022-10-30T04:45:48.410Z,9.90
2022-10-30T04:48:17.283Z,9.90
2022-10-30T04:50:44.799Z,9.90
2022-10-30T04:53:19.324Z,9.90
2022-10-30T04:55:53.002Z,9.90
2022-10-30T04:58:20.324Z,9.80
2022-10-30T05:00:52.320Z,9.80
2022-10-30T05:03:22.961Z,9.80
2022-10-30T05:05:58.919Z,9.80
2022-10-30T05:08:25.967Z,9.70
2022-10-30T05:10:54.453Z,9.70
2022-10-30T05:13:21.373Z,9.80
2022-10-30T05:15:48.321Z,9.80
2022-10-30T05:18:15.457Z,9.80
2022-10-30T05:20:42.490Z,9.70
2022-10-30T05:23:10.240Z,9.70
2022-10-30T05:25:37.109Z,9.70
2022-10-30T05:28:06.984Z,9.70
2022-10-30T05:30:41.485Z,9.60
2022-10-30T05:33:18.310Z,9.60
2022-10-30T05:35:45.321Z,9.50
2022-10-30T05:38:12.859Z,9.50
2022-10-30T05:40:39.920Z,9.50
2022-10-30T05:43:07.296Z,9.50
2022-10-30T05:45:35.043Z,9.50
2022-10-30T05:48:05.268Z,9.50
2022-10-30T05:50:38.643Z,9.50
2022-10-30T05:53:37.596Z,9.50
2022-10-30T05:56:05.896Z,9.40
2022-10-30T05:58:34.799Z,9.50
2022-10-30T06:01:08.974Z,9.40
2022-10-30T06:03:43.745Z,9.40
2022-10-30T06:06:11.647Z,9.40
2022-10-30T06:08:38.496Z,9.40
2022-10-30T06:11:21.545Z,9.30
2022-10-30T06:13:53.198Z,9.30
2022-10-30T06:16:26.328Z,9.30
2022-10-30T06:19:19.360Z,9.30
2022-10-30T06:21:49.366Z,9.30
2022-10-30T06:24:25.781Z,9.20
2022-10-30T06:27:21.499Z,9.30
2022-10-30T06:29:49.097Z,9.30
2022-10-30T06:32:16.377Z,9.30
2022-10-30T06:34:44.910Z,9.30
2022-10-30T06:37:13.438Z,9.40
2022-10-30T06:39:40.600Z,9.40
2022-10-30T06:42:46.660Z,9.40
2022-10-30T06:45:29.262Z,9.40
2022-10-30T06:47:56.628Z,9.40
2022-10-30T06:50:24.412Z,9.50
2022-10-30T06:52:51.878Z,9.40
2022-10-30T06:55:18.771Z,9.50
2022-10-30T06:58:05.398Z,9.50
2022-10-30T07:00:53.780Z,9.50
2022-10-30T07:03:46.691Z,9.60
2022-10-30T07:06:13.705Z,9.60
2022-10-30T07:08:40.598Z,9.70
2022-10-30T07:11:07.540Z,9.70
2022-10-30T07:13:44.085Z,9.80
2022-10-30T07:16:33.553Z,9.90
2022-10-30T07:19:03.691Z,9.90
2022-10-30T07:21:32.631Z,10.00
2022-10-30T07:24:00.427Z,10.10
2022-10-30T07:26:53.240Z,10.30
2022-10-30T07:29:38.144Z,10.40
2022-10-30T07:32:34.553Z,10.50
2022-10-30T07:35:14.911Z,10.60
2022-10-30T07:38:06.399Z,10.80
2022-10-30T07:40:44.670Z,10.90
2022-10-30T07:43:31.746Z,11.10
2022-10-30T07:46:21.537Z,11.50
2022-10-30T07:49:18.812Z,12.20
2022-10-30T07:51:49.837Z,12.80
2022-10-30T07:54:17.408Z,13.50
2022-10-30T07:56:44.361Z,14.10
2022-10-30T07:59:33.805Z,14.80
2022-10-30T08:02:35.697Z,15.50
2022-10-30T08:05:29.960Z,16.40
2022-10-30T08:08:09.667Z,17.20
2022-10-30T08:10:37.834Z,17.90
2022-10-30T08:13:05.078Z,18.60
2022-10-30T08:15:32.938Z,19.20
2022-10-30T08:18:00.148Z,19.70
2022-10-30T08:20:27.698Z,20.30
2022-10-30T08:22:57.436Z,20.80
2022-10-30T08:25:30.149Z,21.30
2022-10-30T08:28:06.003Z,21.90
2022-10-30T08:30:38.534Z,22.40
2022-10-30T08:33:13.609Z,22.90
2022-10-30T08:35:54.141Z,23.30
2022-10-30T08:38:21.152Z,23.70
2022-10-30T08:40:57.684Z,23.90
2022-10-30T08:43:25.345Z,24.30
2022-10-30T08:45:52.601Z,24.60
2022-10-30T08:48:21.594Z,24.90
2022-10-30T08:50:50.320Z,25.20
2022-10-30T08:53:24.581Z,25.40
2022-10-30T08:55:53.389Z,25.60
2022-10-30T08:58:28.813Z,26.00
2022-10-30T09:01:01.216Z,26.30
2022-10-30T09:03:57.642Z,26.60
2022-10-30T09:06:53.626Z,27.00
2022-10-30T09:09:23.025Z,27.40
2022-10-30T09:11:52.909Z,27.70
2022-10-30T09:14:19.909Z,28.10
2022-10-30T09:16:46.770Z,28.50
2022-10-30T09:19:18.698Z,28.90
2022-10-30T09:21:48.500Z,29.20
2022-10-30T09:24:15.330Z,29.60
2022-10-30T09:26:52.219Z,29.80
2022-10-30T09:29:26.304Z,30.20
2022-10-30T09:31:59.938Z,30.40
2022-10-30T09:34:30.881Z,30.70
2022-10-30T09:37:05.734Z,31.00
2022-10-30T09:39:36.457Z,31.20
2022-10-30T09:42:36.345Z,31.50
2022-10-30T09:45:34.090Z,31.70
2022-10-30T09:48:20.003Z,32.10
2022-10-30T09:51:18.103Z,32.40
2022-10-30T09:54:15.395Z,32.60
2022-10-30T09:56:49.750Z,32.60
2022-10-30T09:59:44.430Z,32.60
2022-10-30T10:02:42.339Z,32.60
2022-10-30T10:05:42.704Z,32.60
2022-10-30T10:08:35.124Z,32.50
2022-10-30T10:11:40.248Z,32.70
2022-10-30T10:14:29.718Z,32.80
2022-10-30T10:16:59.216Z,33.10
2022-10-30T10:19:53.429Z,33.40
2022-10-30T10:22:26.808Z,33.70
2022-10-30T10:24:54.910Z,34.00
2022-10-30T10:27:59.065Z,34.10
2022-10-30T10:30:37.066Z,34.20
2022-10-30T10:33:03.828Z,34.50
2022-10-30T10:35:51.615Z,34.70
2022-10-30T10:38:30.327Z,34.90
2022-10-30T10:41:02.998Z,35.00
2022-10-30T10:43:57.170Z,35.30
2022-10-30T10:46:56.534Z,35.60
2022-10-30T10:49:39.012Z,35.80
2022-10-30T10:52:29.459Z,35.80
2022-10-30T10:55:00.995Z,36.00
2022-10-30T10:57:36.625Z,36.00
2022-10-30T11:00:14.233Z,36.10
2022-10-30T11:02:52.339Z,36.30
2022-10-30T11:05:30.627Z,36.40
2022-10-30T11:08:13.795Z,36.50
2022-10-30T11:10:40.755Z,36.60
2022-10-30T11:13:14.607Z,36.70
2022-10-30T11:15:55.691Z,36.60
2022-10-30T11:18:22.476Z,36.60
2022-10-30T11:21:08.429Z,36.50
2022-10-30T11:23:38.997Z,36.40
2022-10-30T11:26:27.122Z,36.40
2022-10-30T11:29:18.504Z,36.40
2022-10-30T11:31:45.993Z,36.60
2022-10-30T11:34:18.982Z,36.60
2022-10-30T11:36:46.283Z,36.50
2022-10-30T11:39:27.516Z,36.60
2022-10-30T11:42:09.965Z,36.70
2022-10-30T11:44:42.176Z,37.00
2022-10-30T11:47:10.974Z,37.20
2022-10-30T11:49:51.854Z,37.30
2022-10-30T11:52:22.936Z,37.30
2022-10-30T11:54:56.561Z,37.20
2022-10-30T11:57:49.033Z,37.10
2022-10-30T12:00:19.536Z,36.90
2022-10-30T12:02:53.922Z,36.80
2022-10-30T12:05:45.237Z,36.90
2022-10-30T12:08:14.761Z,36.80
2022-10-30T12:10:44.618Z,36.80
2022-10-30T12:13:21.040Z,36.80
2022-10-30T12:15:50.661Z,36.90
2022-10-30T12:18:25.668Z,37.00
2022-10-30T12:20:57.655Z,37.00
2022-10-30T12:23:27.969Z,37.00
2022-10-30T12:26:12.671Z,37.00
2022-10-30T12:28:40.587Z,37.00
2022-10-30T12:31:15.648Z,37.00
2022-10-30T12:33:58.692Z,37.00
2022-10-30T12:36:33.423Z,37.00
2022-10-30T12:39:16.996Z,36.90
2022-10-30T12:42:04.245Z,36.70
2022-10-30T12:44:36.533Z,36.30
2022-10-30T12:47:20.568Z,35.90
2022-10-30T12:50:14.513Z,35.60
2022-10-30T12:53:14.988Z,35.20
2022-10-30T12:55:54.511Z,34.60
2022-10-30T12:58:44.120Z,34.20
2022-10-30T13:01:35.222Z,33.90
2022-10-30T13:04:20.359Z,33.60
2022-10-30T13:06:59.587Z,33.20
2022-10-30T13:09:57.751Z,33.00
2022-10-30T13:12:33.406Z,32.80
2022-10-30T13:15:17.482Z,32.40
2022-10-30T13:17:44.259Z,32.30
2022-10-30T13:20:15.520Z,32.20
2022-10-30T13:22:51.358Z,32.10
2022-10-30T13:25:24.011Z,31.90
2022-10-30T13:28:12.400Z,31.90
2022-10-30T13:30:43.901Z,31.70
2022-10-30T13:33:27.210Z,31.60
2022-10-30T13:36:05.551Z,31.40
2022-10-30T13:38:41.051Z,31.30
2022-10-30T13:41:24.827Z,31.20
2022-10-30T13:44:00.889Z,31.00
2022-10-30T13:46:51.306Z,30.80
2022-10-30T13:49:33.508Z,30.60
2022-10-30T13:52:11.038Z,30.40
2022-10-30T13:54:42.587Z,30.30
2022-10-30T13:57:23.139Z,30.10
2022-10-30T13:59:56.963Z,30.10
2022-10-30T14:02:47.685Z,29.90
2022-10-30T14:05:31.238Z,29.80
2022-10-30T14:08:06.856Z,29.60
2022-10-30T14:11:00.328Z,29.40
2022-10-30T14:13:44.174Z,29.30
2022-10-30T14:16:36.982Z,29.20
2022-10-30T14:19:09.052Z,29.20
2022-10-30T14:21:51.577Z,29.10
2022-10-30T14:24:30.205Z,29.00
2022-10-30T14:27:03.069Z,29.00
2022-10-30T14:29:33.082Z,28.90
2022-10-30T14:32:01.322Z,28.70
2022-10-30T14:35:00.695Z,28.60
2022-10-30T14:37:27.495Z,28.50
2022-10-30T14:39:55.506Z,28.40
2022-10-30T14:42:44.836Z,28.20
2022-10-30T14:45:26.044Z,28.00
2022-10-30T14:47:58.774Z,27.80
2022-10-30T14:51:02.789Z,27.50
2022-10-30T14:53:50.621Z,27.30
2022-10-30T14:58:45.101Z,26.70
2022-10-30T15:01:36.383Z,26.50
2022-10-30T15:04:12.337Z,26.20
2022-10-30T15:06:57.139Z,25.90
2022-10-30T15:09:39.310Z,25.60
2022-10-30T15:12:34.301Z,25.30
2022-10-30T15:15:11.621Z,25.00
2022-10-30T15:17:41.682Z,24.80
2022-10-30T15:20:14.817Z,24.50
2022-10-30T15:22:42.976Z,24.30
2022-10-30T15:25:20.413Z,24.00
2022-10-30T15:27:51.651Z,23.70
2022-10-30T15:30:24.724Z,23.50
2022-10-30T15:32:52.170Z,23.20
2022-10-30T15:35:25.950Z,23.00
2022-10-30T15:38:07.564Z,22.70
2022-10-30T15:40:36.125Z,22.50
2022-10-30T15:43:05.332Z,22.30
2022-10-30T15:45:37.405Z,22.00
2022-10-30T15:48:09.077Z,21.80
2022-10-30T15:50:41.169Z,21.60
2022-10-30T15:53:17.498Z,21.40
2022-10-30T15:55:44.396Z,21.20
2022-10-30T15:58:17.763Z,21.00
2022-10-30T16:00:58.769Z,20.70
2022-10-30T16:03:26.140Z,20.40
2022-10-30T16:06:16.659Z,20.20
2022-10-30T16:08:48.032Z,20.00
2022-10-30T16:11:16.228Z,19.80
2022-10-30T16:13:43.527Z,19.60
2022-10-30T16:16:27.878Z,19.40
2022-10-30T16:19:00.327Z,19.20
2022-10-30T16:21:31.222Z,19.00
2022-10-30T16:24:04.308Z,18.80
2022-10-30T16:26:36.783Z,18.70
2022-10-30T16:29:22.948Z,18.50
2022-10-30T16:31:50.376Z,18.30
2022-10-30T16:34:35.133Z,18.20
2022-10-30T16:37:04.605Z,18.10
2022-10-30T16:39:33.785Z,18.00
2022-10-30T16:42:01.211Z,17.90
2022-10-30T16:44:29.285Z,17.80
2022-10-30T16:47:21.052Z,17.70
2022-10-30T16:49:58.906Z,17.60
2022-10-30T16:52:35.382Z,17.50
2022-10-30T16:55:07.750Z,17.40
2022-10-30T16:57:43.580Z,17.30
2022-10-30T17:00:25.925Z,17.30
2022-10-30T17:02:57.718Z,17.20
2022-10-30T17:05:36.981Z,17.10
2022-10-30T17:08:42.456Z,17.10
2022-10-30T17:11:20.953Z,17.00
2022-10-30T17:14:00.054Z,16.90
2022-10-30T17:16:39.226Z,16.80
2022-10-30T17:19:30.715Z,16.70
2022-10-30T17:22:01.631Z,16.70
2022-10-30T17:24:32.759Z,16.60
2022-10-30T17:27:02.256Z,16.50
2022-10-30T17:29:37.874Z,16.40
2022-10-30T17:32:06.593Z,16.40
2022-10-30T17:34:39.414Z,16.30
2022-10-30T17:37:06.281Z,16.20
2022-10-30T17:39:33.057Z,16.10
2022-10-30T17:41:59.894Z,16.00
2022-10-30T17:44:28.033Z,16.00
2022-10-30T17:46:54.791Z,15.90
2022-10-30T17:49:32.248Z,15.80
2022-10-30T17:51:59.879Z,15.70
2022-10-30T17:54:26.710Z,15.60
2022-10-30T17:56:54.025Z,15.60
2022-10-30T17:59:20.841Z,15.50
2022-10-30T18:01:49.146Z,15.40
2022-10-30T18:04:20.633Z,15.30
2022-10-30T18:06:48.535Z,15.20
2022-10-30T18:09:15.612Z,15.10
2022-10-30T18:11:42.593Z,15.10
2022-10-30T18:14:11.479Z,15.00
2022-10-30T18:16:38.861Z,15.00
2022-10-30T18:19:10.785Z,14.90
2022-10-30T18:21:38.206Z,14.90
2022-10-30T18:24:11.190Z,14.80
2022-10-30T18:26:40.761Z,14.70
2022-10-30T18:29:09.077Z,14.60
2022-10-30T18:31:36.566Z,14.60
2022-10-30T18:34:03.810Z,14.50
2022-10-30T18:36:31.001Z,14.50
2022-10-30T18:38:58.608Z,14.40
2022-10-30T18:41:35.368Z,14.30
2022-10-30T18:44:02.812Z,14.20
2022-10-30T18:46:34.111Z,14.00
2022-10-30T18:49:01.068Z,13.90
2022-10-30T18:51:28.947Z,13.80
2022-10-30T18:53:57.014Z,13.70
2022-10-30T18:56:25.133Z,13.60
2022-10-30T18:58:56.406Z,13.60
2022-10-30T19:01:28.650Z,13.50
2022-10-30T19:03:55.686Z,13.40
2022-10-30T19:06:23.861Z,13.40
2022-10-30T19:08:50.757Z,13.30
2022-10-30T19:11:24.251Z,13.20
2022-10-30T19:13:53.881Z,13.10
2022-10-30T19:16:24.495Z,13.00
2022-10-30T19:18:51.315Z,13.00
2022-10-30T19:21:21.973Z,12.90
2022-10-30T19:23:49.511Z,12.80
2022-10-30T19:26:17.522Z,12.80
2022-10-30T19:28:45.582Z,12.70
2022-10-30T19:31:17.748Z,12.60
2022-10-30T19:33:45.000Z,12.60
2022-10-30T19:36:31.118Z,12.50
2022-10-30T19:39:00.860Z,12.50
2022-10-30T19:44:03.002Z,12.40
2022-10-30T19:46:30.161Z,12.30
2022-10-30T19:48:58.607Z,12.20
2022-10-30T19:51:27.723Z,12.20
2022-10-30T19:53:54.708Z,12.10
2022-10-30T19:56:22.378Z,12.10
2022-10-30T19:58:49.992Z,12.00
2022-10-30T20:01:17.194Z,12.00
2022-10-30T20:03:44.474Z,12.00
2022-10-30T20:06:15.158Z,11.90
2022-10-30T20:08:42.036Z,11.90
2022-10-30T20:11:09.131Z,11.80
2022-10-30T20:13:37.280Z,11.80
2022-10-30T20:16:05.792Z,11.80
2022-10-30T20:18:35.683Z,11.70
2022-10-30T20:21:05.421Z,11.70
2022-10-30T20:23:32.304Z,11.60
2022-10-30T20:26:24.411Z,11.50
2022-10-30T20:28:52.793Z,11.50
2022-10-30T20:31:20.335Z,11.40
2022-10-30T20:33:48.520Z,11.40
2022-10-30T20:36:15.719Z,11.30
2022-10-30T20:38:42.709Z,11.30
2022-10-30T20:41:25.806Z,11.30
2022-10-30T20:43:52.898Z,11.30
2022-10-30T20:46:20.315Z,11.20
2022-10-30T20:48:47.611Z,11.10
2022-10-30T20:51:15.107Z,11.10
2022-10-30T20:53:42.064Z,11.10
2022-10-30T20:56:09.045Z,11.00
2022-10-30T20:58:36.082Z,11.00
2022-10-30T21:01:03.015Z,11.00
2022-10-30T21:03:30.163Z,11.00
2022-10-30T21:06:01.803Z,10.90
2022-10-30T21:08:31.574Z,10.90
2022-10-30T21:11:04.077Z,10.80
2022-10-30T21:13:32.951Z,10.80
2022-10-30T21:16:01.811Z,10.80
2022-10-30T21:18:29.003Z,10.70
2022-10-30T21:21:03.644Z,10.60
2022-10-30T21:23:30.620Z,10.60
2022-10-30T21:26:02.072Z,10.60
2022-10-30T21:28:30.241Z,10.50
2022-10-30T21:31:02.288Z,10.50
2022-10-30T21:33:33.063Z,10.50
2022-10-30T21:36:10.607Z,10.50
2022-10-30T21:38:44.667Z,10.50
2022-10-30T21:41:22.818Z,10.40
2022-10-30T21:43:55.521Z,10.40
2022-10-30T21:46:24.920Z,10.40
2022-10-30T21:48:51.972Z,10.40
2022-10-30T21:51:21.808Z,10.30
2022-10-30T21:53:49.269Z,10.30
2022-10-30T21:56:21.476Z,10.30
2022-10-30T21:58:48.461Z,10.30
2022-10-30T22:01:16.672Z,10.30
2022-10-30T22:03:44.077Z,10.30
2022-10-30T22:06:13.252Z,10.30
2022-10-30T22:08:40.649Z,10.30
2022-10-30T22:11:10.136Z,10.20
2022-10-30T22:13:37.836Z,10.20
2022-10-30T22:16:06.214Z,10.20
2022-10-30T22:18:33.541Z,10.20
2022-10-30T22:21:08.856Z,10.10
2022-10-30T22:23:37.052Z,10.10
2022-10-30T22:26:11.436Z,10.10
2022-10-30T22:28:38.209Z,10.10
2022-10-30T22:31:10.144Z,10.00
2022-10-30T22:33:37.724Z,10.00
2022-10-30T22:36:13.350Z,10.00
2022-10-30T22:38:40.178Z,10.10
2022-10-30T22:41:17.906Z,10.10
2022-10-30T22:43:46.409Z,10.10
2022-10-30T22:46:14.782Z,10.10
2022-10-30T22:48:41.611Z,10.10
2022-10-30T22:51:15.659Z,10.10
2022-10-30T22:53:45.489Z,10.00
2022-10-30T22:56:15.801Z,10.00
2022-10-30T22:58:43.547Z,10.00
2022-10-30T23:01:13.733Z,10.00
2022-10-30T23:03:41.021Z,10.00
2022-10-30T23:06:09.508Z,10.00
2022-10-30T23:08:36.861Z,10.00
2022-10-30T23:11:05.142Z,9.90
2022-10-30T23:13:32.480Z,9.90
2022-10-30T23:16:01.769Z,9.90
2022-10-30T23:18:28.851Z,9.80
2022-10-30T23:21:07.338Z,9.80
2022-10-30T23:23:41.262Z,9.80
2022-10-30T23:26:11.109Z,9.80
2022-10-30T23:28:37.943Z,9.70
2022-10-30T23:31:09.483Z,9.70
2022-10-30T23:33:36.542Z,9.70
2022-10-30T23:36:04.597Z,9.60
2022-10-30T23:38:31.503Z,9.60
2022-10-30T23:40:58.395Z,9.60
2022-10-30T23:43:27.211Z,9.60
2022-10-30T23:45:54.031Z,9.60
2022-10-30T23:48:20.992Z,9.50
2022-10-30T23:50:47.781Z,9.50
2022-10-30T23:53:14.565Z,9.60
2022-10-30T23:55:50.819Z,9.70
2022-10-30T23:58:17.698Z,9.70
